Time;durP1;ratioP1;P1;durP2;ratioP2;P2;SDS_P1;SDS_P2;PMS_P1;PMS_P2;Temp;Humidity;BMP_temperature;BMP_pressure;BME280_temperature;BME280_humidity;BME280_pressure;Samples;Min_cycle;Max_cycle;Signal;HPM_P1;HPM_P2
2022/10/11 00:01:30;;;;;;;;;;;20.30;99.90;;;;;;5017372;28;19936;-68
2022/10/11 00:03:57;;;;;;;;;;;20.30;99.90;;;;;;5008356;28;19932;-67
2022/10/11 00:06:24;;;;;;;;;;;20.30;99.90;;;;;;5015020;28;20317;-67
2022/10/11 00:08:51;;;;;;;;;;;20.30;99.90;;;;;;5005464;28;19929;-70
2022/10/11 00:11:18;;;;;;;;;;;20.30;99.90;;;;;;5017509;28;19937;-68
2022/10/11 00:13:45;;;;;;;;;;;20.30;99.90;;;;;;5016179;28;20136;-67
2022/10/11 00:16:14;;;;;;;;;;;20.20;99.90;;;;;;5011990;28;20412;-68
2022/10/11 00:18:41;;;;;;;;;;;20.30;99.90;;;;;;5010090;28;19929;-69
2022/10/11 00:21:10;;;;;;;;;;;20.20;99.90;;;;;;5008938;28;20442;-70
2022/10/11 00:23:37;;;;;;;;;;;20.30;99.90;;;;;;5011423;28;19929;-72
2022/10/11 00:26:05;;;;;;;;;;;20.20;99.90;;;;;;5010074;28;20671;-70
2022/10/11 00:28:33;;;;;;;;;;;20.20;99.90;;;;;;5013838;28;19929;-68
2022/10/11 00:31:01;;;;;;;;;;;20.20;99.90;;;;;;5013090;28;19929;-70
2022/10/11 00:33:29;;;;;;;;;;;20.20;99.90;;;;;;5005616;28;19929;-68
2022/10/11 00:35:57;;;;;;;;;;;20.20;99.90;;;;;;5013952;28;19930;-68
2022/10/11 00:38:25;;;;;;;;;;;20.20;99.90;;;;;;5010145;28;19933;-69
2022/10/11 00:40:52;;;;;;;;;;;20.20;99.90;;;;;;5003684;28;19937;-69
2022/10/11 00:43:21;;;;;;;;;;;20.20;99.90;;;;;;5006217;28;20313;-68
2022/10/11 00:45:58;;;;;;;;;;;20.20;99.90;;;;;;5011513;28;19933;-70
2022/10/11 00:48:34;;;;;;;;;;;20.20;99.90;;;;;;5002089;28;19930;-69
2022/10/11 00:51:03;;;;;;;;;;;20.20;99.90;;;;;;5014385;28;19926;-69
2022/10/11 00:53:31;;;;;;;;;;;20.20;99.90;;;;;;5011738;28;19952;-69
2022/10/11 00:56:01;;;;;;;;;;;20.20;99.90;;;;;;5015675;28;19932;-69
2022/10/11 00:58:30;;;;;;;;;;;20.20;99.90;;;;;;5011864;28;20320;-70
2022/10/11 01:00:57;;;;;;;;;;;20.20;99.90;;;;;;5002975;28;19926;-69
2022/10/11 01:03:25;;;;;;;;;;;20.20;99.90;;;;;;5002910;28;20381;-69
2022/10/11 01:05:52;;;;;;;;;;;20.20;99.90;;;;;;5001313;28;19930;-69
2022/10/11 01:08:19;;;;;;;;;;;20.20;99.90;;;;;;5000970;28;19937;-70
2022/10/11 01:10:46;;;;;;;;;;;20.20;99.90;;;;;;5005835;28;20409;-68
2022/10/11 01:13:32;;;;;;;;;;;20.10;99.90;;;;;;5000198;28;19937;-70
2022/10/11 01:16:06;;;;;;;;;;;20.10;99.90;;;;;;5008309;28;19929;-70
2022/10/11 01:18:41;;;;;;;;;;;20.10;99.90;;;;;;5008951;28;20401;-70
2022/10/11 01:21:20;;;;;;;;;;;20.10;99.90;;;;;;5003695;28;19929;-70
2022/10/11 01:23:47;;;;;;;;;;;20.10;99.90;;;;;;5007982;28;19937;-70
2022/10/11 01:26:33;;;;;;;;;;;20.10;99.90;;;;;;5007965;28;19930;-70
2022/10/11 01:28:59;;;;;;;;;;;20.10;99.90;;;;;;5005104;28;19925;-69
2022/10/11 01:31:30;;;;;;;;;;;20.10;99.90;;;;;;5004060;28;19933;-69
2022/10/11 01:34:23;;;;;;;;;;;20.10;99.90;;;;;;5012632;28;20321;-69
2022/10/11 01:36:57;;;;;;;;;;;20.10;99.90;;;;;;5012002;28;19929;-70
2022/10/11 01:39:29;;;;;;;;;;;20.10;99.90;;;;;;5016201;28;20144;-69
2022/10/11 01:41:59;;;;;;;;;;;20.10;99.90;;;;;;5012499;28;19929;-69
2022/10/11 01:44:27;;;;;;;;;;;20.10;99.90;;;;;;5008613;28;19937;-69
2022/10/11 01:46:54;;;;;;;;;;;20.10;99.90;;;;;;5009261;28;19932;-70
2022/10/11 01:49:21;;;;;;;;;;;20.10;99.90;;;;;;5006674;28;19925;-70
2022/10/11 01:51:51;;;;;;;;;;;20.00;99.90;;;;;;5005490;28;19926;-69
2022/10/11 01:54:18;;;;;;;;;;;20.10;99.90;;;;;;4997519;28;19937;-68
2022/10/11 01:56:52;;;;;;;;;;;20.00;99.90;;;;;;5011030;28;19929;-71
2022/10/11 01:59:19;;;;;;;;;;;20.00;99.90;;;;;;5004570;28;20300;-69
2022/10/11 02:02:05;;;;;;;;;;;20.00;99.90;;;;;;5010930;28;19954;-68
2022/10/11 02:04:35;;;;;;;;;;;20.00;99.90;;;;;;5011564;28;19960;-67
2022/10/11 02:07:09;;;;;;;;;;;20.00;99.90;;;;;;5009624;28;19935;-69
2022/10/11 02:09:39;;;;;;;;;;;20.00;99.90;;;;;;5008189;28;19991;-68
2022/10/11 02:12:08;;;;;;;;;;;20.00;99.90;;;;;;5032962;28;19925;-69
2022/10/11 02:14:37;;;;;;;;;;;20.00;99.90;;;;;;5000862;28;19937;-70
2022/10/11 02:17:12;;;;;;;;;;;20.00;99.90;;;;;;5011212;28;19925;-71
2022/10/11 02:19:42;;;;;;;;;;;20.00;99.90;;;;;;5009820;28;19925;-68
2022/10/11 02:22:13;;;;;;;;;;;20.00;99.90;;;;;;5006145;28;19932;-68
2022/10/11 02:24:43;;;;;;;;;;;20.00;99.90;;;;;;5013912;28;20483;-71
2022/10/11 02:27:10;;;;;;;;;;;20.00;99.90;;;;;;5009252;28;19926;-69
2022/10/11 02:29:38;;;;;;;;;;;20.00;99.90;;;;;;5011716;28;20388;-67
2022/10/11 02:32:06;;;;;;;;;;;20.00;99.90;;;;;;5007613;28;19929;-71
2022/10/11 02:34:40;;;;;;;;;;;20.00;99.90;;;;;;5004755;28;20327;-70
2022/10/11 02:37:21;;;;;;;;;;;19.90;99.90;;;;;;5001674;28;19932;-71
2022/10/11 02:39:55;;;;;;;;;;;20.00;99.90;;;;;;4999619;28;20031;-68
2022/10/11 02:42:25;;;;;;;;;;;20.00;99.90;;;;;;5013096;28;20118;-68
2022/10/11 02:44:59;;;;;;;;;;;20.00;99.90;;;;;;5003275;28;19936;-71
2022/10/11 02:47:28;;;;;;;;;;;20.00;99.90;;;;;;5008275;28;19930;-69
2022/10/11 02:49:55;;;;;;;;;;;19.90;99.90;;;;;;5009492;28;20412;-71
2022/10/11 02:52:22;;;;;;;;;;;19.90;99.90;;;;;;5016945;28;19925;-68
2022/10/11 02:54:49;;;;;;;;;;;19.90;99.90;;;;;;5008078;28;19941;-70
2022/10/11 02:57:16;;;;;;;;;;;19.90;99.90;;;;;;5008108;28;19926;-67
2022/10/11 02:59:43;;;;;;;;;;;19.90;99.90;;;;;;5002919;28;19926;-70
2022/10/11 03:02:10;;;;;;;;;;;19.90;99.90;;;;;;5007455;28;19937;-69
2022/10/11 03:04:37;;;;;;;;;;;19.90;99.90;;;;;;5026827;28;19925;-68
2022/10/11 03:07:04;;;;;;;;;;;19.90;99.90;;;;;;5029220;28;19929;-69
2022/10/11 03:09:31;;;;;;;;;;;19.90;99.90;;;;;;5011169;28;20397;-67
2022/10/11 03:11:58;;;;;;;;;;;19.90;99.90;;;;;;5006705;28;19932;-70
2022/10/11 03:14:25;;;;;;;;;;;19.90;99.90;;;;;;5011647;28;19930;-71
2022/10/11 03:16:52;;;;;;;;;;;19.90;99.90;;;;;;5021464;28;19933;-69
2022/10/11 03:19:19;;;;;;;;;;;19.80;99.90;;;;;;5021153;28;19933;-68
2022/10/11 03:21:46;;;;;;;;;;;19.80;99.90;;;;;;5018970;28;20389;-68
2022/10/11 03:24:13;;;;;;;;;;;19.90;99.90;;;;;;5017510;28;20570;-69
2022/10/11 03:26:40;;;;;;;;;;;19.80;99.90;;;;;;5014897;28;19929;-66
2022/10/11 03:29:07;;;;;;;;;;;19.80;99.90;;;;;;5001410;28;20411;-69
2022/10/11 03:31:35;;;;;;;;;;;19.80;99.90;;;;;;5015298;28;19940;-68
2022/10/11 03:34:02;;;;;;;;;;;19.80;99.90;;;;;;5017385;28;19936;-70
2022/10/11 03:36:29;;;;;;;;;;;19.80;99.90;;;;;;5006392;28;19929;-67
2022/10/11 03:38:56;;;;;;;;;;;19.80;99.90;;;;;;5010984;28;20352;-67
2022/10/11 03:41:23;;;;;;;;;;;19.80;99.90;;;;;;5012315;28;19933;-70
2022/10/11 03:43:50;;;;;;;;;;;19.80;99.90;;;;;;5020884;28;20348;-69
2022/10/11 03:46:17;;;;;;;;;;;19.80;99.90;;;;;;5008561;28;19936;-70
2022/10/11 03:48:44;;;;;;;;;;;19.80;99.90;;;;;;5012339;28;19929;-69
2022/10/11 03:51:12;;;;;;;;;;;19.80;99.90;;;;;;5013837;28;19941;-68
2022/10/11 03:53:39;;;;;;;;;;;19.80;99.90;;;;;;5013538;28;20313;-71
2022/10/11 03:56:06;;;;;;;;;;;19.80;99.90;;;;;;5018388;28;19930;-70
2022/10/11 03:58:34;;;;;;;;;;;19.80;99.90;;;;;;5008029;28;19936;-69
2022/10/11 04:01:01;;;;;;;;;;;19.80;99.90;;;;;;5007421;28;19933;-70
2022/10/11 04:03:28;;;;;;;;;;;19.80;99.90;;;;;;5015281;28;19929;-68
2022/10/11 04:05:55;;;;;;;;;;;19.80;99.90;;;;;;5003553;28;19953;-69
2022/10/11 04:08:22;;;;;;;;;;;19.90;99.90;;;;;;5011221;28;19934;-68
2022/10/11 04:10:49;;;;;;;;;;;20.00;99.90;;;;;;5007296;28;19932;-67
2022/10/11 04:13:16;;;;;;;;;;;20.30;99.90;;;;;;5006923;28;19925;-68
2022/10/11 04:15:43;;;;;;;;;;;20.50;99.90;;;;;;5008524;28;20388;-68
2022/10/11 04:18:10;;;;;;;;;;;20.80;99.90;;;;;;5018236;28;19929;-69
2022/10/11 04:20:37;;;;;;;;;;;21.10;99.90;;;;;;5014761;28;19929;-67
2022/10/11 04:23:04;;;;;;;;;;;21.30;99.90;;;;;;5017252;28;19935;-68
2022/10/11 04:25:32;;;;;;;;;;;21.60;99.90;;;;;;5016095;28;19929;-67
2022/10/11 04:27:59;;;;;;;;;;;21.80;99.90;;;;;;5006779;28;19929;-68
2022/10/11 04:30:26;;;;;;;;;;;21.90;99.90;;;;;;5009666;28;19936;-68
2022/10/11 04:32:53;;;;;;;;;;;21.90;99.90;;;;;;5007034;28;19944;-67
2022/10/11 04:35:20;;;;;;;;;;;22.00;99.90;;;;;;5002063;28;20271;-68
2022/10/11 04:37:47;;;;;;;;;;;22.10;99.90;;;;;;5003833;28;19930;-69
2022/10/11 04:40:14;;;;;;;;;;;22.20;99.90;;;;;;5015149;28;19929;-67
2022/10/11 04:42:41;;;;;;;;;;;22.20;99.90;;;;;;5015334;28;20312;-67
2022/10/11 04:45:08;;;;;;;;;;;22.20;99.90;;;;;;5003193;28;19937;-70
2022/10/11 04:47:35;;;;;;;;;;;22.20;99.90;;;;;;5010452;28;20391;-69
2022/10/11 04:50:03;;;;;;;;;;;22.20;99.90;;;;;;5015166;28;19937;-69
2022/10/11 04:52:30;;;;;;;;;;;22.20;99.90;;;;;;5011550;28;20324;-70
2022/10/11 04:54:57;;;;;;;;;;;22.20;99.90;;;;;;5006079;28;19926;-69
2022/10/11 04:57:24;;;;;;;;;;;22.20;99.90;;;;;;5002833;28;20157;-69
2022/10/11 04:59:51;;;;;;;;;;;22.10;99.90;;;;;;5011813;28;19925;-69
2022/10/11 05:02:18;;;;;;;;;;;22.10;99.90;;;;;;5002049;28;19934;-69
2022/10/11 05:04:45;;;;;;;;;;;22.10;99.90;;;;;;5002409;28;20304;-69
2022/10/11 05:07:12;;;;;;;;;;;21.90;99.90;;;;;;5002323;28;19926;-68
2022/10/11 05:09:39;;;;;;;;;;;21.80;99.90;;;;;;5002494;28;19936;-67
2022/10/11 05:12:07;;;;;;;;;;;21.80;99.90;;;;;;5014169;28;19933;-68
2022/10/11 05:14:34;;;;;;;;;;;21.70;99.90;;;;;;5019867;28;19949;-71
2022/10/11 05:17:02;;;;;;;;;;;21.70;99.90;;;;;;5015880;28;19932;-68
2022/10/11 05:19:29;;;;;;;;;;;21.60;99.90;;;;;;5008007;28;19929;-66
2022/10/11 05:21:56;;;;;;;;;;;21.70;99.90;;;;;;5016979;28;19929;-67
2022/10/11 05:24:23;;;;;;;;;;;21.70;99.90;;;;;;5006212;28;19937;-69
2022/10/11 05:26:50;;;;;;;;;;;21.60;99.90;;;;;;5024998;28;19936;-70
2022/10/11 05:29:17;;;;;;;;;;;21.60;99.90;;;;;;5006525;28;19930;-68
2022/10/11 05:31:44;;;;;;;;;;;21.60;99.90;;;;;;5015177;28;19930;-68
2022/10/11 05:34:11;;;;;;;;;;;21.60;99.90;;;;;;5016876;28;20320;-67
2022/10/11 05:36:38;;;;;;;;;;;21.50;99.90;;;;;;5002182;28;19936;-69
2022/10/11 05:39:05;;;;;;;;;;;21.50;99.90;;;;;;5012259;28;19957;-70
2022/10/11 05:41:32;;;;;;;;;;;21.50;99.90;;;;;;5010217;28;19936;-68
2022/10/11 05:43:59;;;;;;;;;;;21.50;99.90;;;;;;5010305;28;19940;-67
2022/10/11 05:46:26;;;;;;;;;;;21.40;99.90;;;;;;5007505;28;19930;-69
2022/10/11 05:48:53;;;;;;;;;;;21.40;99.90;;;;;;5015639;28;20187;-68
2022/10/11 05:51:20;;;;;;;;;;;21.40;99.90;;;;;;5005206;28;19929;-71
2022/10/11 05:53:48;;;;;;;;;;;21.40;99.90;;;;;;5005196;28;19930;-70
2022/10/11 05:56:22;;;;;;;;;;;21.30;99.90;;;;;;5011970;28;20320;-68
2022/10/11 05:58:49;;;;;;;;;;;21.30;99.90;;;;;;5007694;28;19927;-69
2022/10/11 06:01:17;;;;;;;;;;;21.30;99.90;;;;;;5004945;28;19926;-68
2022/10/11 06:03:44;;;;;;;;;;;21.30;99.90;;;;;;5010549;28;20520;-66
2022/10/11 06:06:12;;;;;;;;;;;21.30;99.90;;;;;;5002730;28;19930;-68
2022/10/11 06:08:39;;;;;;;;;;;21.20;99.90;;;;;;5006168;28;19932;-66
2022/10/11 06:11:14;;;;;;;;;;;21.20;99.90;;;;;;5005572;28;19936;-67
2022/10/11 06:13:41;;;;;;;;;;;21.20;99.90;;;;;;5007593;28;19929;-66
2022/10/11 06:16:08;;;;;;;;;;;21.30;99.90;;;;;;5008033;28;19930;-65
2022/10/11 06:18:35;;;;;;;;;;;21.30;99.90;;;;;;5019933;28;19933;-67
2022/10/11 06:21:03;;;;;;;;;;;21.30;99.90;;;;;;5013405;28;19929;-67
2022/10/11 06:23:30;;;;;;;;;;;21.40;99.90;;;;;;5015678;28;20371;-68
2022/10/11 06:26:01;;;;;;;;;;;21.40;99.90;;;;;;5009380;28;19932;-66
2022/10/11 06:28:28;;;;;;;;;;;21.40;99.90;;;;;;4999374;28;20402;-64
2022/10/11 06:30:56;;;;;;;;;;;21.50;99.90;;;;;;5006468;28;19933;-63
2022/10/11 06:33:24;;;;;;;;;;;21.50;99.90;;;;;;5010058;28;19929;-67
2022/10/11 06:35:58;;;;;;;;;;;21.50;99.90;;;;;;5000731;28;20326;-70
2022/10/11 06:38:25;;;;;;;;;;;21.60;99.90;;;;;;5001730;28;20694;-69
2022/10/11 06:40:52;;;;;;;;;;;21.60;99.90;;;;;;5017474;28;20214;-68
2022/10/11 06:43:19;;;;;;;;;;;21.60;99.90;;;;;;5013435;28;19929;-68
2022/10/11 06:45:46;;;;;;;;;;;21.60;99.90;;;;;;5015014;28;19944;-69
2022/10/11 06:48:13;;;;;;;;;;;21.60;99.90;;;;;;5016069;28;20108;-69
2022/10/11 06:50:41;;;;;;;;;;;21.70;99.90;;;;;;5005345;28;19937;-68
2022/10/11 06:53:26;;;;;;;;;;;21.70;99.90;;;;;;5012740;28;19933;-69
2022/10/11 06:56:21;;;;;;;;;;;21.60;99.90;;;;;;5013835;28;20155;-69
2022/10/11 06:58:49;;;;;;;;;;;21.60;99.90;;;;;;5005240;28;19945;-69
2022/10/11 07:01:18;;;;;;;;;;;21.60;99.90;;;;;;5014659;28;19933;-68
2022/10/11 07:03:46;;;;;;;;;;;21.60;99.90;;;;;;5006868;28;19933;-68
2022/10/11 07:06:14;;;;;;;;;;;21.60;99.90;;;;;;5023383;28;20286;-62
2022/10/11 07:08:41;;;;;;;;;;;21.50;99.90;;;;;;5003161;28;20397;-66
2022/10/11 07:11:13;;;;;;;;;;;21.50;99.90;;;;;;5003208;28;20401;-67
2022/10/11 07:13:40;;;;;;;;;;;21.50;99.90;;;;;;5014859;28;19929;-67
2022/10/11 07:16:08;;;;;;;;;;;21.50;99.90;;;;;;5003398;28;19926;-68
2022/10/11 07:18:36;;;;;;;;;;;21.40;99.90;;;;;;4999815;28;19942;-67
2022/10/11 07:21:09;;;;;;;;;;;21.40;99.90;;;;;;5006820;28;19926;-68
2022/10/11 07:23:36;;;;;;;;;;;21.40;99.90;;;;;;5005656;28;19965;-67
2022/10/11 07:26:04;;;;;;;;;;;21.30;99.90;;;;;;5007514;28;19932;-65
2022/10/11 07:28:32;;;;;;;;;;;21.30;99.90;;;;;;5018174;28;19925;-67
2022/10/11 07:31:03;;;;;;;;;;;21.30;99.90;;;;;;5017705;28;19936;-67
2022/10/11 07:33:30;;;;;;;;;;;21.30;99.90;;;;;;5017717;28;19925;-67
2022/10/11 07:35:57;;;;;;;;;;;21.30;99.90;;;;;;5017929;28;19933;-67
2022/10/11 07:38:24;;;;;;;;;;;21.20;99.90;;;;;;5002972;28;19945;-66
2022/10/11 07:40:51;;;;;;;;;;;21.20;99.90;;;;;;4999099;28;19925;-67
2022/10/11 07:43:18;;;;;;;;;;;21.20;99.90;;;;;;5000052;28;19930;-66
2022/10/11 07:45:47;;;;;;;;;;;21.20;99.90;;;;;;5012102;28;19929;-68
2022/10/11 07:48:14;;;;;;;;;;;21.20;99.90;;;;;;5004069;28;19929;-65
2022/10/11 07:50:41;;;;;;;;;;;21.20;99.90;;;;;;5006332;28;19936;-67
2022/10/11 07:53:08;;;;;;;;;;;21.20;99.90;;;;;;5004423;28;19930;-67
2022/10/11 07:55:39;;;;;;;;;;;21.20;99.90;;;;;;5013744;28;19929;-66
2022/10/11 07:58:10;;;;;;;;;;;21.20;99.90;;;;;;5019987;28;19936;-68
2022/10/11 08:00:38;;;;;;;;;;;21.20;99.90;;;;;;5012965;28;20289;-66
2022/10/11 08:03:05;;;;;;;;;;;21.20;99.90;;;;;;5009270;28;19930;-68
2022/10/11 08:05:33;;;;;;;;;;;21.30;99.90;;;;;;5015918;28;19937;-67
2022/10/11 08:08:00;;;;;;;;;;;21.30;99.90;;;;;;5012705;28;19932;-67
2022/10/11 08:10:27;;;;;;;;;;;21.40;99.90;;;;;;5015497;28;19937;-68
2022/10/11 08:12:54;;;;;;;;;;;21.40;99.90;;;;;;5013739;28;20296;-67
2022/10/11 08:15:21;;;;;;;;;;;21.40;99.90;;;;;;5020997;28;19933;-66
2022/10/11 08:17:48;;;;;;;;;;;21.40;99.90;;;;;;5010443;28;19926;-67
2022/10/11 08:20:15;;;;;;;;;;;21.40;99.90;;;;;;5017706;28;19930;-67
2022/10/11 08:22:42;;;;;;;;;;;21.50;99.90;;;;;;5011352;28;19925;-67
2022/10/11 08:25:09;;;;;;;;;;;21.50;99.90;;;;;;5005727;28;19929;-67
2022/10/11 08:27:36;;;;;;;;;;;21.50;99.90;;;;;;5011450;28;20411;-67
2022/10/11 08:30:04;;;;;;;;;;;21.50;99.90;;;;;;5022363;28;19932;-67
2022/10/11 08:32:31;;;;;;;;;;;21.50;99.90;;;;;;5026009;28;19925;-66
2022/10/11 08:34:58;;;;;;;;;;;21.60;99.90;;;;;;5001568;28;19926;-67
2022/10/11 08:37:25;;;;;;;;;;;21.60;99.90;;;;;;5014406;28;19936;-65
2022/10/11 08:39:52;;;;;;;;;;;21.60;99.90;;;;;;5001888;28;19933;-66
2022/10/11 08:42:25;;;;;;;;;;;21.60;99.90;;;;;;5003380;28;20282;-67
2022/10/11 08:44:53;;;;;;;;;;;21.60;99.90;;;;;;5016771;28;19925;-67
2022/10/11 08:47:39;;;;;;;;;;;21.60;99.90;;;;;;5011253;28;19929;-68
2022/10/11 08:50:13;;;;;;;;;;;21.60;99.90;;;;;;5016687;28;20091;-67
2022/10/11 08:52:46;;;;;;;;;;;21.60;99.90;;;;;;4998210;28;19925;-67
2022/10/11 08:55:32;;;;;;;;;;;21.60;99.90;;;;;;5014175;28;19929;-67
2022/10/11 08:58:00;;;;;;;;;;;21.60;99.90;;;;;;5011359;28;19936;-67
2022/10/11 09:00:30;;;;;;;;;;;21.60;99.90;;;;;;5015458;28;19948;-67
2022/10/11 09:03:00;;;;;;;;;;;21.50;99.90;;;;;;5010303;28;19933;-67
2022/10/11 09:05:42;;;;;;;;;;;21.50;99.90;;;;;;4999883;28;19930;-66
2022/10/11 09:08:16;;;;;;;;;;;21.50;99.90;;;;;;5007061;28;19941;-69
2022/10/11 09:10:57;;;;;;;;;;;21.50;99.90;;;;;;5011202;28;19925;-65
2022/10/11 09:13:34;;;;;;;;;;;21.40;99.90;;;;;;5008977;28;20208;-67
2022/10/11 09:16:07;;;;;;;;;;;21.40;99.90;;;;;;5010799;28;19926;-67
2022/10/11 09:18:39;;;;;;;;;;;21.40;99.90;;;;;;5013606;28;19936;-65
2022/10/11 09:21:09;;;;;;;;;;;21.30;99.90;;;;;;5017041;28;19938;-67
2022/10/11 09:23:40;;;;;;;;;;;21.30;99.90;;;;;;5016448;28;19929;-67
2022/10/11 09:26:07;;;;;;;;;;;21.30;99.90;;;;;;5021127;28;19940;-67
2022/10/11 09:28:53;;;;;;;;;;;21.30;99.90;;;;;;5020441;28;19925;-67
2022/10/11 09:31:27;;;;;;;;;;;21.30;99.90;;;;;;5004757;28;19929;-67
2022/10/11 09:33:54;;;;;;;;;;;21.20;99.90;;;;;;5023186;28;19929;-67
2022/10/11 09:36:30;;;;;;;;;;;21.20;99.90;;;;;;5008795;28;20309;-67
2022/10/11 09:39:06;;;;;;;;;;;21.20;99.90;;;;;;5014635;28;20039;-67
2022/10/11 09:41:40;;;;;;;;;;;21.20;99.90;;;;;;5003791;28;20415;-68
2022/10/11 09:44:12;;;;;;;;;;;21.20;99.90;;;;;;5004850;28;19937;-67
2022/10/11 09:46:41;;;;;;;;;;;21.10;99.90;;;;;;5007022;28;19925;-67
2022/10/11 09:49:11;;;;;;;;;;;21.10;99.90;;;;;;5007553;28;20321;-66
2022/10/11 09:51:40;;;;;;;;;;;21.20;99.90;;;;;;5009533;28;19953;-67
2022/10/11 09:54:09;;;;;;;;;;;21.20;99.90;;;;;;5010994;28;19936;-65
2022/10/11 09:56:43;;;;;;;;;;;21.20;99.90;;;;;;5025666;28;20419;-67
2022/10/11 09:59:28;;;;;;;;;;;21.20;99.90;;;;;;5016947;28;19926;-67
2022/10/11 10:02:14;;;;;;;;;;;21.20;99.90;;;;;;5004822;28;19930;-67
2022/10/11 10:04:53;;;;;;;;;;;21.30;99.90;;;;;;4999585;28;19930;-68
2022/10/11 10:07:20;;;;;;;;;;;21.30;99.90;;;;;;5009670;28;19937;-68
2022/10/11 10:09:48;;;;;;;;;;;21.40;99.90;;;;;;5015270;28;19933;-68
2022/10/11 10:12:20;;;;;;;;;;;21.40;99.90;;;;;;5018474;28;19962;-67
2022/10/11 10:14:54;;;;;;;;;;;21.40;99.90;;;;;;5010246;28;19940;-67
2022/10/11 10:17:21;;;;;;;;;;;21.50;99.90;;;;;;5016769;28;19926;-67
2022/10/11 10:19:53;;;;;;;;;;;21.60;99.90;;;;;;5008282;28;19932;-67
2022/10/11 10:22:22;;;;;;;;;;;21.50;99.90;;;;;;5018839;28;19933;-68
2022/10/11 10:24:49;;;;;;;;;;;21.60;99.90;;;;;;5013329;28;19925;-68
2022/10/11 10:27:20;;;;;;;;;;;21.60;99.90;;;;;;5013597;28;20335;-67
2022/10/11 10:30:12;;;;;;;;;;;21.60;99.90;;;;;;5014979;28;19926;-63
2022/10/11 10:33:05;;;;;;;;;;;21.60;99.90;;;;;;5022973;28;19936;-66
2022/10/11 10:35:48;;;;;;;;;;;21.60;99.90;;;;;;5011056;28;19929;-68
2022/10/11 10:38:18;;;;;;;;;;;21.60;99.90;;;;;;5018430;28;19932;-67
2022/10/11 10:40:55;;;;;;;;;;;21.60;99.90;;;;;;5011288;28;19943;-66
2022/10/11 10:43:23;;;;;;;;;;;21.60;99.90;;;;;;5015250;28;19930;-65
2022/10/11 10:46:09;;;;;;;;;;;21.60;99.90;;;;;;5008049;28;19929;-66
2022/10/11 10:48:48;;;;;;;;;;;21.60;99.90;;;;;;5014128;28;19937;-67
2022/10/11 10:51:44;;;;;;;;;;;21.50;99.90;;;;;;5009208;28;19937;-65
2022/10/11 10:54:29;;;;;;;;;;;21.50;99.90;;;;;;5007081;28;19929;-67
2022/10/11 10:57:21;;;;;;;;;;;21.50;99.90;;;;;;5014858;28;19936;-67
2022/10/11 10:59:55;;;;;;;;;;;21.50;99.90;;;;;;5023848;28;19930;-67
2022/10/11 11:02:25;;;;;;;;;;;21.50;99.90;;;;;;5010474;28;19926;-68
2022/10/11 11:05:06;;;;;;;;;;;21.50;99.90;;;;;;5008321;28;19929;-68
2022/10/11 11:07:34;;;;;;;;;;;21.40;99.90;;;;;;5000201;28;19934;-68
2022/10/11 11:10:04;;;;;;;;;;;21.40;99.90;;;;;;5013577;28;19941;-66
2022/10/11 11:12:53;;;;;;;;;;;21.40;99.90;;;;;;5003587;28;20308;-64
2022/10/11 11:15:27;;;;;;;;;;;21.40;99.90;;;;;;5012894;28;19930;-66
2022/10/11 11:18:16;;;;;;;;;;;21.30;99.90;;;;;;5006461;28;20044;-66
2022/10/11 11:21:02;;;;;;;;;;;21.30;99.90;;;;;;5023262;28;19933;-68
2022/10/11 11:23:32;;;;;;;;;;;21.30;99.90;;;;;;5020202;28;19929;-66
2022/10/11 11:26:02;;;;;;;;;;;21.30;99.90;;;;;;5028302;28;19929;-65
2022/10/11 11:28:36;;;;;;;;;;;21.30;99.90;;;;;;5030907;28;19925;-68
2022/10/11 11:31:06;;;;;;;;;;;21.30;99.90;;;;;;5025980;28;19925;-67
2022/10/11 11:33:38;;;;;;;;;;;21.20;99.90;;;;;;5023039;28;19926;-67
2022/10/11 11:36:10;;;;;;;;;;;21.20;99.90;;;;;;5015034;28;19937;-67
2022/10/11 11:38:37;;;;;;;;;;;21.20;99.90;;;;;;5032042;28;19930;-67
2022/10/11 11:41:09;;;;;;;;;;;21.20;99.90;;;;;;5021097;28;19925;-67
2022/10/11 11:43:49;;;;;;;;;;;21.20;99.90;;;;;;5023275;28;19930;-67
2022/10/11 11:46:19;;;;;;;;;;;21.20;99.90;;;;;;5028685;28;19925;-67
2022/10/11 11:48:47;;;;;;;;;;;21.20;99.90;;;;;;5031624;28;19932;-68
2022/10/11 11:51:25;;;;;;;;;;;21.30;99.90;;;;;;5021525;28;19928;-65
2022/10/11 11:54:16;;;;;;;;;;;21.20;99.90;;;;;;5028489;28;20572;-68
2022/10/11 11:56:47;;;;;;;;;;;21.30;99.90;;;;;;5020490;28;19940;-70
2022/10/11 11:59:33;;;;;;;;;;;21.20;99.90;;;;;;5026671;28;19999;-72
2022/10/11 12:02:13;;;;;;;;;;;21.20;99.90;;;;;;5013999;28;19932;-68
2022/10/11 12:04:42;;;;;;;;;;;21.20;99.90;;;;;;5015253;28;19929;-68
2022/10/11 12:07:10;;;;;;;;;;;21.20;99.90;;;;;;5015607;28;20416;-69
2022/10/11 12:09:44;;;;;;;;;;;21.20;99.90;;;;;;5015638;28;19933;-66
2022/10/11 12:12:26;;;;;;;;;;;21.30;99.90;;;;;;5018476;28;19937;-65
2022/10/11 12:15:03;;;;;;;;;;;21.30;99.90;;;;;;5008730;28;19930;-66
2022/10/11 12:17:30;;;;;;;;;;;21.40;99.90;;;;;;5012698;28;19942;-73
2022/10/11 12:20:13;;;;;;;;;;;21.40;99.90;;;;;;5008258;28;20369;-70
2022/10/11 12:22:52;;;;;;;;;;;21.60;99.90;;;;;;5022018;28;19933;-69
2022/10/11 12:25:26;;;;;;;;;;;21.60;99.90;;;;;;5016343;28;19933;-68
2022/10/11 12:27:54;;;;;;;;;;;21.70;99.90;;;;;;5011804;28;19936;-73
2022/10/11 12:30:40;;;;;;;;;;;21.80;99.90;;;;;;5011755;28;19936;-71
2022/10/11 12:33:26;;;;;;;;;;;21.80;99.90;;;;;;5009622;28;19929;-72
2022/10/11 12:35:53;;;;;;;;;;;21.80;99.90;;;;;;5009639;28;19930;-73
2022/10/11 12:38:23;;;;;;;;;;;21.80;99.90;;;;;;5012197;28;20332;-70
2022/10/11 12:41:15;;;;;;;;;;;21.70;99.90;;;;;;5023131;28;20447;-70
2022/10/11 12:43:48;;;;;;;;;;;21.70;99.90;;;;;;5009722;28;19926;-70
2022/10/11 12:46:28;;;;;;;;;;;21.70;99.90;;;;;;5008581;28;19930;-69
2022/10/11 12:49:14;;;;;;;;;;;21.70;99.90;;;;;;5008783;28;19972;-66
2022/10/11 12:51:49;;;;;;;;;;;21.70;99.90;;;;;;5012878;28;19930;-69
2022/10/11 12:54:35;;;;;;;;;;;21.80;99.90;;;;;;5014125;28;19926;-67
2022/10/11 12:57:25;;;;;;;;;;;21.80;99.90;;;;;;5012081;28;20415;-65
2022/10/11 12:59:52;;;;;;;;;;;21.90;99.90;;;;;;5014706;28;21785;-65
2022/10/11 13:02:19;;;;;;;;;;;21.90;99.90;;;;;;5006716;28;19933;-66
2022/10/11 13:04:47;;;;;;;;;;;21.90;99.90;;;;;;5006106;28;20305;-64
2022/10/11 13:07:22;;;;;;;;;;;21.90;99.90;;;;;;5006206;28;19964;-65
2022/10/11 13:09:52;;;;;;;;;;;21.80;99.90;;;;;;5007194;28;19930;-71
2022/10/11 13:12:22;;;;;;;;;;;21.80;99.90;;;;;;5011401;28;19956;-65
2022/10/11 13:14:58;;;;;;;;;;;21.70;99.90;;;;;;5016440;28;19926;-72
2022/10/11 13:17:28;;;;;;;;;;;21.80;99.90;;;;;;5015132;28;19925;-68
2022/10/11 13:20:08;;;;;;;;;;;21.90;99.90;;;;;;5003620;28;19934;-68
2022/10/11 13:22:38;;;;;;;;;;;21.90;99.90;;;;;;5000715;28;19937;-66
2022/10/11 13:25:06;;;;;;;;;;;21.90;99.90;;;;;;5011425;28;20105;-67
2022/10/11 13:27:35;;;;;;;;;;;22.00;99.90;;;;;;5016160;28;19933;-66
2022/10/11 13:30:07;;;;;;;;;;;22.00;99.90;;;;;;5000405;28;19936;-67
2022/10/11 13:32:35;;;;;;;;;;;22.00;99.90;;;;;;5020122;28;20388;-64
2022/10/11 13:35:04;;;;;;;;;;;22.10;99.90;;;;;;5013881;28;19938;-66
2022/10/11 13:37:39;;;;;;;;;;;22.10;99.90;;;;;;5011319;28;20474;-64
2022/10/11 13:40:11;;;;;;;;;;;22.00;99.90;;;;;;5007981;28;19933;-65
2022/10/11 13:42:39;;;;;;;;;;;21.90;99.90;;;;;;5010159;28;19933;-65
2022/10/11 13:45:13;;;;;;;;;;;21.90;99.90;;;;;;5007086;28;19926;-65
2022/10/11 13:47:40;;;;;;;;;;;21.80;99.90;;;;;;5004008;28;20355;-66
2022/10/11 13:50:30;;;;;;;;;;;21.70;99.90;;;;;;5006989;28;19932;-66
2022/10/11 13:52:59;;;;;;;;;;;21.70;99.90;;;;;;5007700;28;19932;-66
2022/10/11 13:55:34;;;;;;;;;;;21.70;99.90;;;;;;5013266;28;19929;-66
2022/10/11 13:58:07;;;;;;;;;;;21.60;99.90;;;;;;5008520;28;20380;-64
2022/10/11 14:00:38;;;;;;;;;;;21.60;99.90;;;;;;5013322;28;19925;-63
2022/10/11 14:03:11;;;;;;;;;;;21.60;99.90;;;;;;5005848;28;19933;-65
2022/10/11 14:05:42;;;;;;;;;;;21.60;99.90;;;;;;5010535;28;19929;-65
2022/10/11 14:08:28;;;;;;;;;;;21.50;99.90;;;;;;5004991;28;20399;-64
2022/10/11 14:10:55;;;;;;;;;;;21.50;99.90;;;;;;5002259;28;19930;-65
2022/10/11 14:13:32;;;;;;;;;;;21.50;99.90;;;;;;5005248;28;20386;-66
2022/10/11 14:16:13;;;;;;;;;;;21.40;99.90;;;;;;5009466;28;19933;-66
2022/10/11 14:18:52;;;;;;;;;;;21.50;99.90;;;;;;5002243;28;20364;-64
2022/10/11 14:21:19;;;;;;;;;;;21.50;99.90;;;;;;4999272;28;20384;-66
2022/10/11 14:23:50;;;;;;;;;;;21.50;99.90;;;;;;5003356;28;19937;-66
2022/10/11 14:26:18;;;;;;;;;;;21.50;99.90;;;;;;5006464;28;19925;-66
2022/10/11 14:28:51;;;;;;;;;;;21.50;99.90;;;;;;5002845;28;19929;-64
2022/10/11 14:31:18;;;;;;;;;;;21.50;99.90;;;;;;5009309;28;19933;-64
2022/10/11 14:33:45;;;;;;;;;;;21.60;99.90;;;;;;5008632;28;20431;-64
2022/10/11 14:36:12;;;;;;;;;;;21.60;99.90;;;;;;5008377;28;19932;-64
2022/10/11 14:38:39;;;;;;;;;;;21.60;99.90;;;;;;4994875;28;19926;-62